createdAt,value
2022-11-02T00:02:57.279Z,11.07
2022-11-02T00:07:18.993Z,10.90
2022-11-02T00:11:41.006Z,15.60
2022-11-02T00:16:08.454Z,10.52
2022-11-02T00:20:30.598Z,8.82
2022-11-02T00:24:52.941Z,9.32
2022-11-02T00:29:14.842Z,10.68
2022-11-02T00:33:37.086Z,13.45
2022-11-02T00:37:59.623Z,15.18
2022-11-02T00:42:21.580Z,7.40
2022-11-02T00:46:43.457Z,9.43
2022-11-02T00:51:05.630Z,20.15
2022-11-02T00:55:27.513Z,12.35
2022-11-02T00:59:54.265Z,9.07
2022-11-02T01:04:20.382Z,9.75
2022-11-02T01:08:42.519Z,10.82
2022-11-02T01:13:04.310Z,11.32
2022-11-02T01:17:26.514Z,14.23
2022-11-02T01:21:48.378Z,9.82
2022-11-02T01:26:10.430Z,7.72
2022-11-02T01:30:32.332Z,15.25
2022-11-02T01:34:54.221Z,9.63
2022-11-02T01:39:16.427Z,13.60
2022-11-02T01:43:38.227Z,10.15
2022-11-02T01:48:00.434Z,7.82
2022-11-02T01:52:34.258Z,16.02
2022-11-02T01:57:05.654Z,13.68
2022-11-02T02:01:28.171Z,11.38
2022-11-02T02:06:13.787Z,11.30
2022-11-02T02:10:36.780Z,13.75
2022-11-02T02:15:00.756Z,9.10
2022-11-02T02:19:58.035Z,14.10
2022-11-02T02:24:49.548Z,15.65
2022-11-02T02:30:01.991Z,14.35
2022-11-02T02:34:46.080Z,12.60
2022-11-02T02:39:29.722Z,12.80
2022-11-02T02:43:55.196Z,13.05
2022-11-02T02:48:23.013Z,11.00
2022-11-02T02:52:47.253Z,20.08
2022-11-02T02:57:17.776Z,14.38
2022-11-02T03:01:45.486Z,15.57
2022-11-02T03:06:23.009Z,10.38
2022-11-02T03:11:16.562Z,18.05
2022-11-02T03:16:06.769Z,18.40
2022-11-02T03:20:59.061Z,15.57
2022-11-02T03:25:52.735Z,16.80
2022-11-02T03:30:19.910Z,12.70
2022-11-02T03:34:52.580Z,12.30
2022-11-02T03:39:20.811Z,15.15
2022-11-02T03:43:44.924Z,11.07
2022-11-02T03:48:11.597Z,9.32
2022-11-02T03:52:39.815Z,13.07
2022-11-02T03:57:07.545Z,14.15
2022-11-02T04:01:31.545Z,12.75
2022-11-02T04:05:53.810Z,10.90
2022-11-02T04:10:27.513Z,12.95
2022-11-02T04:14:49.554Z,7.50
2022-11-02T04:19:28.712Z,12.75
2022-11-02T04:24:18.991Z,10.50
2022-11-02T04:28:42.612Z,11.52
2022-11-02T04:33:24.066Z,10.70
2022-11-02T04:38:21.105Z,12.80
2022-11-02T04:42:47.310Z,16.23
2022-11-02T04:47:09.510Z,8.75
2022-11-02T04:51:31.924Z,14.07
2022-11-02T04:55:54.151Z,14.38
2022-11-02T05:00:17.412Z,15.15
2022-11-02T05:04:39.893Z,19.38
2022-11-02T05:09:02.826Z,10.38
2022-11-02T05:13:27.039Z,9.68
2022-11-02T05:17:51.920Z,16.67
2022-11-02T05:22:13.815Z,12.93
2022-11-02T05:26:36.769Z,15.30
2022-11-02T05:31:01.852Z,16.30
2022-11-02T05:35:26.832Z,14.18
2022-11-02T05:39:58.199Z,13.82
2022-11-02T05:44:20.215Z,12.98
2022-11-02T05:48:42.478Z,17.80
2022-11-02T05:53:04.777Z,18.23
2022-11-02T05:57:27.180Z,14.38
2022-11-02T06:01:49.269Z,16.40
2022-11-02T06:06:12.456Z,15.20
2022-11-02T06:10:34.311Z,12.73
2022-11-02T06:14:56.287Z,12.13
2022-11-02T06:19:18.544Z,18.90
2022-11-02T06:23:40.691Z,12.68
2022-11-02T06:28:02.740Z,13.35
2022-11-02T06:32:26.914Z,14.20
2022-11-02T06:36:48.928Z,15.95
2022-11-02T06:41:10.646Z,13.07
2022-11-02T06:45:34.054Z,16.77
2022-11-02T06:49:56.291Z,16.30
2022-11-02T06:54:18.323Z,14.75
2022-11-02T06:58:40.621Z,10.75
2022-11-02T07:03:05.858Z,10.75
2022-11-02T07:07:28.273Z,15.02
2022-11-02T07:11:50.431Z,15.05
2022-11-02T07:16:12.666Z,11.93
2022-11-02T07:20:34.921Z,11.32
2022-11-02T07:24:56.658Z,10.23
2022-11-02T07:29:19.631Z,15.13
2022-11-02T07:33:41.625Z,11.95
2022-11-02T07:38:07.312Z,12.20
2022-11-02T07:42:29.193Z,10.15
2022-11-02T07:46:52.580Z,10.07
2022-11-02T07:51:14.518Z,12.27
2022-11-02T07:55:36.428Z,8.77
2022-11-02T07:59:58.405Z,10.20
2022-11-02T08:08:46.998Z,16.55
2022-11-02T08:13:11.408Z,10.02
2022-11-02T08:17:35.618Z,8.80
2022-11-02T08:21:57.192Z,11.95
2022-11-02T08:26:19.103Z,9.75
2022-11-02T08:30:41.375Z,10.57
2022-11-02T08:35:03.190Z,8.57
2022-11-02T08:39:25.157Z,14.55
2022-11-02T08:43:47.248Z,10.75
2022-11-02T08:48:09.040Z,11.50
2022-11-02T08:52:40.345Z,13.95
2022-11-02T08:57:02.769Z,12.93
2022-11-02T09:01:24.882Z,14.63
2022-11-02T09:05:47.936Z,14.77
2022-11-02T09:10:10.259Z,13.85
2022-11-02T09:14:31.951Z,19.10
2022-11-02T09:18:53.890Z,9.68
2022-11-02T09:23:21.844Z,15.50
2022-11-02T09:27:44.825Z,16.95
2022-11-02T09:32:06.660Z,17.50
2022-11-02T09:36:28.785Z,7.28
2022-11-02T09:41:30.544Z,15.38
2022-11-02T09:46:13.591Z,8.68
2022-11-02T09:51:20.510Z,10.95
2022-11-02T09:55:53.232Z,8.55
2022-11-02T10:00:18.538Z,13.75
2022-11-02T10:05:17.616Z,7.10
2022-11-02T10:09:51.169Z,12.15
2022-11-02T10:14:23.103Z,9.50
2022-11-02T10:18:49.592Z,6.35
2022-11-02T10:23:38.634Z,8.80
2022-11-02T10:28:24.372Z,11.68
2022-11-02T10:33:01.617Z,12.30
2022-11-02T10:38:14.773Z,13.45
2022-11-02T10:42:47.843Z,11.55
2022-11-02T10:47:20.501Z,7.93
2022-11-02T10:51:42.449Z,9.60
2022-11-02T10:56:13.148Z,12.52
2022-11-02T11:00:37.338Z,14.40
2022-11-02T11:05:13.838Z,10.05
2022-11-02T11:09:57.221Z,9.95
2022-11-02T11:23:49.616Z,11.93
2022-11-02T11:28:37.506Z,13.30
2022-11-02T11:33:01.276Z,7.53
2022-11-02T11:37:24.316Z,12.23
2022-11-02T11:41:46.360Z,10.50
2022-11-02T11:46:10.976Z,9.75
2022-11-02T11:50:33.838Z,6.28
2022-11-02T11:54:59.017Z,9.35
2022-11-02T11:59:42.449Z,12.30
2022-11-02T12:04:04.238Z,8.55
2022-11-02T12:08:44.761Z,9.38
2022-11-02T12:13:17.677Z,10.23
2022-11-02T12:18:00.291Z,12.85
2022-11-02T12:22:51.351Z,8.52
2022-11-02T12:27:32.188Z,12.32
2022-11-02T12:32:11.412Z,11.52
2022-11-02T12:37:40.012Z,7.25
2022-11-02T12:42:16.000Z,12.18
2022-11-02T12:47:08.940Z,7.57
2022-11-02T12:51:40.760Z,12.20
2022-11-02T12:56:08.129Z,5.13
2022-11-02T13:00:32.463Z,11.68
2022-11-02T13:05:05.833Z,13.32
2022-11-02T13:09:39.131Z,11.82
2022-11-02T13:14:04.882Z,12.38
2022-11-02T13:18:39.460Z,10.60
2022-11-02T13:28:39.191Z,8.10
2022-11-02T13:33:16.085Z,8.00
2022-11-02T13:37:48.852Z,9.88
2022-11-02T13:42:49.877Z,6.13
2022-11-02T13:47:23.477Z,9.68
2022-11-02T13:51:58.631Z,10.60
2022-11-02T13:56:28.137Z,7.68
2022-11-02T14:00:51.442Z,10.50
2022-11-02T14:05:27.811Z,13.38
2022-11-02T14:09:50.912Z,8.38
2022-11-02T14:14:22.009Z,9.40
2022-11-02T14:18:43.779Z,8.82
2022-11-02T14:23:11.721Z,11.80
2022-11-02T14:27:34.318Z,10.35
2022-11-02T14:32:01.445Z,10.57
2022-11-02T14:36:57.064Z,10.15
2022-11-02T14:41:59.313Z,6.53
2022-11-02T14:47:00.238Z,10.55
2022-11-02T14:51:36.034Z,6.53
2022-11-02T14:55:57.981Z,8.68
2022-11-02T15:00:32.428Z,7.70
2022-11-02T15:05:01.787Z,9.10
2022-11-02T15:10:00.198Z,9.27
2022-11-02T15:14:38.023Z,12.77
2022-11-02T15:19:49.769Z,7.93
2022-11-02T15:24:17.999Z,7.93
2022-11-02T15:28:42.662Z,12.77
2022-11-02T15:33:06.772Z,11.85
2022-11-02T15:37:45.295Z,12.73
2022-11-02T15:42:47.194Z,15.13
2022-11-02T15:47:44.747Z,12.27
2022-11-02T15:52:18.455Z,13.30
2022-11-02T15:57:30.410Z,12.10
2022-11-02T16:02:41.405Z,10.93
2022-11-02T16:07:07.500Z,8.10
2022-11-02T16:11:29.921Z,11.65
2022-11-02T16:16:06.545Z,10.75
2022-11-02T16:20:36.853Z,9.38
2022-11-02T16:24:58.585Z,13.35
2022-11-02T16:29:31.519Z,11.80
2022-11-02T16:33:56.258Z,18.92
2022-11-02T16:38:18.874Z,13.88
2022-11-02T16:42:40.731Z,15.52
2022-11-02T16:47:09.545Z,10.82
2022-11-02T16:51:31.436Z,12.40
2022-11-02T16:55:58.502Z,16.50
2022-11-02T17:00:21.306Z,12.18
2022-11-02T17:04:45.660Z,13.30
2022-11-02T17:09:32.953Z,9.68
2022-11-02T17:14:00.223Z,16.05
2022-11-02T17:18:21.999Z,14.93
2022-11-02T17:23:07.038Z,13.57
2022-11-02T17:27:37.659Z,15.25
2022-11-02T17:32:05.493Z,16.35
2022-11-02T17:36:28.774Z,17.88
2022-11-02T17:40:52.410Z,18.98
2022-11-02T17:45:33.590Z,17.75
2022-11-02T17:49:56.093Z,13.05
2022-11-02T17:54:18.672Z,12.88
2022-11-02T17:58:40.585Z,13.93
2022-11-02T18:03:03.284Z,20.05
2022-11-02T18:07:25.168Z,18.45
2022-11-02T18:11:47.391Z,18.52
2022-11-02T18:16:09.223Z,17.25
2022-11-02T18:20:32.904Z,17.48
2022-11-02T18:24:57.039Z,14.63
2022-11-02T18:29:19.234Z,17.25
2022-11-02T18:33:43.647Z,14.77
2022-11-02T18:38:05.381Z,14.23
2022-11-02T18:42:27.182Z,18.33
2022-11-02T18:46:49.610Z,18.38
2022-11-02T18:51:11.500Z,19.63
2022-11-02T18:55:33.799Z,14.18
2022-11-02T18:59:56.113Z,20.85
2022-11-02T19:04:18.042Z,20.60
2022-11-02T19:08:58.894Z,25.27
2022-11-02T19:13:21.207Z,20.65
2022-11-02T19:17:45.353Z,18.17
2022-11-02T19:22:08.141Z,20.42
2022-11-02T19:26:30.275Z,18.67
2022-11-02T19:30:52.419Z,19.63
2022-11-02T19:35:15.301Z,18.70
2022-11-02T19:39:37.635Z,15.73
2022-11-02T19:43:59.692Z,27.70
2022-11-02T19:48:21.435Z,24.25
2022-11-02T19:52:46.521Z,22.17
2022-11-02T19:57:08.420Z,22.08
2022-11-02T20:01:33.315Z,23.85
2022-11-02T20:06:01.091Z,24.25
2022-11-02T20:10:23.835Z,22.95
2022-11-02T20:14:46.494Z,25.27
2022-11-02T20:19:10.156Z,20.30
2022-11-02T20:23:33.814Z,20.83
2022-11-02T20:27:58.025Z,24.90
2022-11-02T20:32:24.021Z,24.75
2022-11-02T20:36:47.700Z,17.77
2022-11-02T20:41:19.921Z,19.67
2022-11-02T20:45:42.454Z,21.67
2022-11-02T20:50:04.534Z,25.17
2022-11-02T20:54:29.854Z,22.27
2022-11-02T20:58:55.714Z,26.98
2022-11-02T21:03:19.507Z,16.88
2022-11-02T21:07:41.681Z,23.05
2022-11-02T21:12:22.526Z,22.20
2022-11-02T21:16:44.828Z,21.52
2022-11-02T21:21:10.960Z,26.20
2022-11-02T21:25:33.519Z,18.83
2022-11-02T21:29:55.670Z,20.75
2022-11-02T21:34:17.775Z,25.08
2022-11-02T21:38:40.478Z,25.48
2022-11-02T21:43:02.750Z,20.58
2022-11-02T21:47:25.752Z,22.55
2022-11-02T21:51:47.921Z,24.05
2022-11-02T21:56:18.446Z,21.13
2022-11-02T22:00:59.281Z,20.90
2022-11-02T22:05:40.853Z,29.35
2022-11-02T22:10:04.708Z,22.45
2022-11-02T22:14:27.197Z,26.02
2022-11-02T22:18:49.667Z,22.95
2022-11-02T22:23:11.791Z,25.88
2022-11-02T22:27:36.873Z,25.63
2022-11-02T22:32:03.396Z,21.83
2022-11-02T22:36:31.644Z,25.85
2022-11-02T22:41:03.267Z,24.23
2022-11-02T22:45:24.814Z,29.05
2022-11-02T22:49:46.770Z,22.27
2022-11-02T22:54:14.933Z,28.88
2022-11-02T22:58:37.310Z,32.90
2022-11-02T23:02:59.314Z,19.83
2022-11-02T23:07:21.221Z,19.33
2022-11-02T23:11:43.952Z,23.83
2022-11-02T23:16:22.617Z,25.13
2022-11-02T23:20:53.755Z,20.75
2022-11-02T23:25:17.744Z,24.38
2022-11-02T23:29:58.534Z,23.92
2022-11-02T23:34:20.295Z,20.65
2022-11-02T23:39:06.816Z,26.25
2022-11-02T23:43:28.627Z,19.27
2022-11-02T23:47:57.122Z,26.20
2022-11-02T23:52:37.461Z,25.67
2022-11-02T23:56:59.569Z,22.85
